Mayhew, Mississippi
Current Conditions -  °F | °C
As of 7:45 AM on Wednesday 22 Oct 2014 (Local Time) from KGTR Reporting Station
Clear Clear  
Wind Chill: 44°   Ceiling: Unl
Heat Index: 46°   Visibility: 10mi
Dew Point: 43°   Wind: 5mph
Humidity: 87%   Direction: 350°N
Pressure: 30.16"   Gusts: NA
Location:  33.49°N, 88.63°W
Report Text: KGTR 221245Z 35004KT 10SM SKC 08/06 A3016
Loading
Personal Weather Stations






























Interactive Weather Map New forecast layout! Learn more

10-Day Weather Forecast

Advertisements
Track Severe Weather on mobile